createdAt,value
2023-10-09T00:00:49.363Z,12.750854
2023-10-09T00:04:14.825Z,12.640076
2023-10-09T00:07:39.817Z,12.670288
2023-10-09T00:11:05.030Z,12.539368
2023-10-09T00:14:30.331Z,12.529297
2023-10-09T00:17:55.616Z,12.499084
2023-10-09T00:21:20.826Z,12.489014
2023-10-09T00:24:46.034Z,12.559509
2023-10-09T00:28:11.280Z,12.619934
2023-10-09T00:31:36.520Z,12.619934
2023-10-09T00:35:01.785Z,12.559509
2023-10-09T00:38:27.149Z,12.559509
2023-10-09T00:41:52.263Z,12.529297
2023-10-09T00:45:17.543Z,12.559509
2023-10-09T00:48:42.712Z,12.56958
2023-10-09T00:52:07.889Z,12.539368
2023-10-09T00:55:33.121Z,12.56958
2023-10-09T00:58:58.296Z,12.529297
2023-10-09T01:02:23.533Z,12.539368
2023-10-09T01:05:48.684Z,12.559509
2023-10-09T01:09:13.943Z,12.589722
2023-10-09T01:12:39.146Z,12.650146
2023-10-09T01:16:04.378Z,12.670288
2023-10-09T01:19:29.619Z,12.7005
2023-10-09T01:22:54.849Z,12.720642
2023-10-09T01:26:20.065Z,12.720642
2023-10-09T01:29:45.479Z,12.7005
2023-10-09T01:33:10.639Z,12.670288
2023-10-09T01:36:35.803Z,12.680359
2023-10-09T01:40:01.139Z,12.650146
2023-10-09T01:43:26.248Z,12.650146
2023-10-09T01:46:51.508Z,12.640076
2023-10-09T01:50:16.689Z,12.7005
2023-10-09T01:53:41.898Z,12.670288
2023-10-09T01:57:07.164Z,12.670288
2023-10-09T02:00:32.364Z,12.619934
2023-10-09T02:03:57.669Z,12.559509
2023-10-09T02:07:22.820Z,12.56958
2023-10-09T02:10:48.042Z,12.519226
2023-10-09T02:14:13.429Z,12.559509
2023-10-09T02:17:38.483Z,12.539368
2023-10-09T02:21:03.749Z,12.519226
2023-10-09T02:24:28.898Z,12.489014
2023-10-09T02:27:54.105Z,12.539368
2023-10-09T02:31:19.372Z,12.519226
2023-10-09T02:34:44.587Z,12.539368
2023-10-09T02:38:09.844Z,12.539368
2023-10-09T02:41:35.034Z,12.519226
2023-10-09T02:45:00.602Z,12.559509
2023-10-09T02:48:25.521Z,12.559509
2023-10-09T02:51:50.695Z,12.56958
2023-10-09T02:55:15.932Z,12.559509
2023-10-09T02:58:41.124Z,12.559509
2023-10-09T03:02:06.334Z,12.56958
2023-10-09T03:05:31.568Z,12.56958
2023-10-09T03:08:56.831Z,12.539368
2023-10-09T03:12:22.078Z,12.499084
2023-10-09T03:15:47.235Z,12.458801
2023-10-09T03:19:12.427Z,12.408447
2023-10-09T03:22:37.636Z,12.378235
2023-10-09T03:26:15.226Z,12.388306
2023-10-09T03:29:28.082Z,12.418518
2023-10-09T03:32:53.433Z,12.468872
2023-10-09T03:36:18.481Z,12.519226
2023-10-09T03:39:44.425Z,12.499084
2023-10-09T03:43:09.652Z,12.529297
2023-10-09T03:46:35.006Z,12.519226
2023-10-09T03:50:00.121Z,12.468872
2023-10-09T03:53:25.320Z,12.489014
2023-10-09T03:56:50.527Z,12.418518
2023-10-09T04:00:15.737Z,12.408447
2023-10-09T04:03:41.092Z,12.418518
2023-10-09T04:07:06.175Z,12.468872
2023-10-09T04:10:31.399Z,12.489014
2023-10-09T04:13:56.626Z,12.539368
2023-10-09T04:17:21.848Z,12.56958
2023-10-09T04:20:47.079Z,12.56958
2023-10-09T04:24:12.338Z,12.589722
2023-10-09T04:27:37.531Z,12.589722
2023-10-09T04:31:02.761Z,12.589722
2023-10-09T04:34:27.934Z,12.589722
2023-10-09T04:37:53.257Z,12.56958
2023-10-09T04:41:18.406Z,12.650146
2023-10-09T04:44:43.613Z,12.670288
2023-10-09T04:48:08.864Z,12.7005
2023-10-09T04:51:34.143Z,12.7005
2023-10-09T04:54:59.291Z,12.720642
2023-10-09T04:58:24.473Z,12.740784
2023-10-09T05:01:49.762Z,12.781067
2023-10-09T05:05:14.935Z,12.781067
2023-10-09T05:08:40.167Z,12.750854
2023-10-09T05:12:05.573Z,12.750854
2023-10-09T05:15:30.755Z,12.770996
2023-10-09T05:18:55.950Z,12.831421
2023-10-09T05:22:21.174Z,12.922058
2023-10-09T05:25:46.388Z,12.922058
2023-10-09T05:29:11.857Z,12.952271
2023-10-09T05:32:36.946Z,13.002625
2023-10-09T05:36:02.181Z,12.932129
2023-10-09T05:39:27.468Z,12.932129
2023-10-09T05:42:52.691Z,12.962341
2023-10-09T05:46:18.004Z,12.932129
2023-10-09T05:49:43.184Z,12.952271
2023-10-09T05:53:08.457Z,12.972412
2023-10-09T05:56:33.771Z,13.042908
2023-10-09T05:59:59.026Z,13.042908
2023-10-09T06:03:24.554Z,13.052979
2023-10-09T06:06:49.619Z,13.052979
2023-10-09T06:10:14.941Z,13.052979
2023-10-09T06:13:40.172Z,13.07312
2023-10-09T06:17:05.436Z,13.083191
2023-10-09T06:20:31.148Z,13.113403
2023-10-09T06:23:56.380Z,13.103333
2023-10-09T06:27:21.637Z,13.083191
2023-10-09T06:30:46.901Z,13.123474
2023-10-09T06:34:12.274Z,13.143616
2023-10-09T06:37:37.568Z,13.224182
2023-10-09T06:41:02.736Z,13.19397
2023-10-09T06:44:28.018Z,13.234253
2023-10-09T06:47:53.418Z,13.254395
2023-10-09T06:51:18.774Z,13.304749
2023-10-09T06:54:44.143Z,13.355103
2023-10-09T06:58:16.717Z,13.405457
2023-10-09T07:01:42.059Z,13.475952
2023-10-09T07:05:07.299Z,13.506165
2023-10-09T07:08:32.578Z,13.566589
2023-10-09T07:11:57.840Z,13.596802
2023-10-09T07:15:23.124Z,13.637085
2023-10-09T07:18:48.344Z,13.707581
2023-10-09T07:22:13.602Z,13.768005
2023-10-09T07:25:39.039Z,13.778076
2023-10-09T07:29:04.319Z,13.818359
2023-10-09T07:32:29.564Z,13.888855
2023-10-09T07:35:54.867Z,13.908997
2023-10-09T07:39:20.105Z,13.908997
2023-10-09T07:42:45.449Z,13.868713
2023-10-09T07:46:10.685Z,13.868713
2023-10-09T07:49:35.861Z,13.908997
2023-10-09T07:53:01.092Z,13.919067
2023-10-09T07:56:26.497Z,13.919067
2023-10-09T07:59:51.757Z,13.908997
2023-10-09T08:03:17.112Z,13.94928
2023-10-09T08:06:42.291Z,13.94928
2023-10-09T08:10:07.400Z,13.959351
2023-10-09T08:13:32.621Z,13.94928
2023-10-09T08:16:57.805Z,13.888855
2023-10-09T08:20:23.086Z,13.888855
2023-10-09T08:23:48.232Z,13.878784
2023-10-09T08:27:13.494Z,13.848572
2023-10-09T08:30:38.711Z,13.848572
2023-10-09T08:37:29.128Z,13.878784
2023-10-09T08:40:54.412Z,13.919067
2023-10-09T08:44:19.650Z,13.878784
2023-10-09T08:47:45.014Z,13.908997
2023-10-09T08:51:10.203Z,13.888855
2023-10-09T08:54:35.523Z,13.959351
2023-10-09T08:58:00.834Z,13.919067
2023-10-09T09:01:26.678Z,13.959351
2023-10-09T09:04:51.407Z,13.888855
2023-10-09T09:08:16.628Z,13.969421
2023-10-09T09:11:41.899Z,13.94928
2023-10-09T09:15:07.076Z,13.989563
2023-10-09T09:18:32.320Z,14.019775
2023-10-09T09:21:57.547Z,14.100342
2023-10-09T09:25:22.739Z,14.170837
2023-10-09T09:28:48.011Z,14.211121
2023-10-09T09:32:13.211Z,14.251404
2023-10-09T09:35:38.426Z,14.321899
2023-10-09T09:39:03.664Z,14.362183
2023-10-09T09:42:28.931Z,14.352112
2023-10-09T09:45:54.859Z,14.402466
2023-10-09T09:49:20.338Z,14.432678
2023-10-09T09:52:45.626Z,14.432678
2023-10-09T09:56:11.010Z,14.462891
2023-10-09T09:59:36.281Z,14.513245
2023-10-09T10:03:01.653Z,14.513245
2023-10-09T10:06:26.788Z,14.472961
2023-10-09T10:09:52.118Z,14.513245
2023-10-09T10:13:17.425Z,14.543457
2023-10-09T10:16:42.762Z,14.603882
2023-10-09T10:20:08.062Z,14.613953
2023-10-09T10:23:33.248Z,14.603882
2023-10-09T10:26:58.582Z,14.573669
2023-10-09T10:30:23.903Z,14.523315
2023-10-09T10:33:49.161Z,14.462891
2023-10-09T10:37:14.475Z,14.503174
2023-10-09T10:40:40.151Z,14.472961
2023-10-09T10:44:05.235Z,14.513245
2023-10-09T10:47:30.337Z,14.503174
2023-10-09T10:50:55.558Z,14.513245
2023-10-09T10:54:21.057Z,14.513245
2023-10-09T10:57:46.236Z,14.472961
2023-10-09T11:01:11.480Z,14.432678
2023-10-09T11:04:36.993Z,14.402466
2023-10-09T11:08:02.048Z,14.372253
2023-10-09T11:11:27.417Z,14.392395
2023-10-09T11:14:52.558Z,14.372253
2023-10-09T11:18:17.943Z,14.372253
2023-10-09T11:21:43.096Z,14.372253
2023-10-09T11:25:08.389Z,14.392395
2023-10-09T11:28:33.694Z,14.402466
2023-10-09T11:31:59.044Z,14.402466
2023-10-09T11:35:24.237Z,14.372253
2023-10-09T11:38:53.046Z,14.402466
2023-10-09T11:42:18.349Z,14.362183
2023-10-09T11:45:43.643Z,14.321899
2023-10-09T11:49:08.865Z,14.281616
2023-10-09T11:52:34.155Z,14.33197
2023-10-09T11:55:59.482Z,14.321899
2023-10-09T11:59:39.973Z,14.271545
2023-10-09T12:03:05.219Z,14.241333
2023-10-09T12:06:30.452Z,14.241333
2023-10-09T12:09:55.745Z,14.241333
2023-10-09T12:13:21.011Z,14.241333
2023-10-09T12:16:46.308Z,14.271545
2023-10-09T12:20:11.756Z,14.281616
2023-10-09T12:23:37.115Z,14.241333
2023-10-09T12:27:02.343Z,14.221191
2023-10-09T12:30:27.623Z,14.180908
2023-10-09T12:33:52.997Z,14.100342
2023-10-09T12:37:18.293Z,14.070129
2023-10-09T12:40:43.715Z,14.090271
2023-10-09T12:44:08.914Z,14.070129
2023-10-09T12:47:34.215Z,14.170837
2023-10-09T12:50:59.448Z,14.221191
2023-10-09T12:54:24.826Z,14.281616
2023-10-09T12:57:50.094Z,14.352112
2023-10-09T13:01:15.477Z,14.432678
2023-10-09T13:04:40.735Z,14.45282
2023-10-09T13:08:05.948Z,14.372253
2023-10-09T13:11:31.198Z,14.321899
2023-10-09T13:14:56.424Z,14.281616
2023-10-09T13:18:21.714Z,14.291687
2023-10-09T13:21:46.964Z,14.321899
2023-10-09T13:25:18.338Z,14.321899
2023-10-09T13:28:37.575Z,14.352112
2023-10-09T13:32:02.638Z,14.321899
2023-10-09T13:35:27.932Z,14.291687
2023-10-09T13:38:53.155Z,14.321899
2023-10-09T13:42:18.480Z,14.321899
2023-10-09T13:45:43.767Z,14.352112
2023-10-09T13:49:09.007Z,14.33197
2023-10-09T13:52:34.302Z,14.321899
2023-10-09T13:55:59.548Z,14.33197
2023-10-09T13:59:24.716Z,14.33197
2023-10-09T14:02:50.035Z,14.291687
2023-10-09T14:06:15.189Z,14.291687
2023-10-09T14:09:40.468Z,14.241333
2023-10-09T14:13:05.684Z,14.170837
2023-10-09T14:16:30.960Z,14.150696
2023-10-09T14:19:56.220Z,14.140625
2023-10-09T14:23:21.457Z,14.070129
2023-10-09T14:26:46.706Z,14.090271
2023-10-09T14:30:11.955Z,14.140625
2023-10-09T14:33:37.262Z,14.090271
2023-10-09T14:37:02.636Z,14.100342
2023-10-09T14:40:27.936Z,14.170837
2023-10-09T14:43:53.342Z,14.180908
2023-10-09T14:47:18.587Z,14.221191
2023-10-09T14:50:44.024Z,14.251404
2023-10-09T14:54:09.353Z,14.291687
2023-10-09T14:57:34.570Z,14.281616
2023-10-09T15:00:59.875Z,14.241333
2023-10-09T15:04:25.160Z,14.271545
2023-10-09T15:07:50.530Z,14.211121
2023-10-09T15:11:15.807Z,14.241333
2023-10-09T15:47:12.370Z,14.422607
2023-10-09T15:50:37.533Z,14.432678
2023-10-09T15:54:02.845Z,14.503174
2023-10-09T15:57:28.084Z,14.45282
2023-10-09T16:02:10.375Z,14.462891
2023-10-09T16:05:35.647Z,14.503174
2023-10-09T16:09:00.822Z,14.543457
2023-10-09T16:12:26.102Z,14.513245
2023-10-09T16:15:52.067Z,14.513245
2023-10-09T16:19:17.539Z,14.523315
2023-10-09T16:22:43.573Z,14.523315
2023-10-09T16:26:08.843Z,14.513245
2023-10-09T16:29:34.218Z,14.513245
2023-10-09T16:32:59.711Z,14.523315
2023-10-09T16:36:24.951Z,14.513245
2023-10-09T16:39:50.237Z,14.553528
2023-10-09T16:43:15.442Z,14.58374
2023-10-09T16:46:43.382Z,14.613953
2023-10-09T16:50:09.004Z,14.684448
2023-10-09T16:53:35.098Z,14.694519
2023-10-09T16:57:00.347Z,14.734802
2023-10-09T17:00:25.602Z,14.754944
2023-10-09T17:03:50.843Z,14.754944
2023-10-09T17:07:16.099Z,14.795227
2023-10-09T17:10:41.310Z,14.795227
2023-10-09T17:14:06.558Z,14.83551
2023-10-09T17:17:31.730Z,14.83551
2023-10-09T17:20:57.241Z,14.875793
2023-10-09T17:24:22.575Z,14.855652
2023-10-09T17:27:47.877Z,14.83551
2023-10-09T17:31:13.210Z,14.855652
2023-10-09T17:34:38.506Z,14.885864
2023-10-09T17:38:05.902Z,14.916077
2023-10-09T17:41:33.095Z,14.916077
2023-10-09T17:44:58.461Z,14.936218
2023-10-09T17:48:23.970Z,14.936218
2023-10-09T17:51:49.221Z,14.946289
2023-10-09T17:55:14.528Z,14.916077
2023-10-09T17:59:11.712Z,14.885864
2023-10-09T18:02:37.068Z,14.855652
2023-10-09T18:06:02.330Z,14.875793
2023-10-09T18:09:27.680Z,14.885864
2023-10-09T18:12:52.986Z,14.906006
2023-10-09T18:16:19.354Z,14.885864
2023-10-09T18:19:44.603Z,14.855652
2023-10-09T18:23:11.416Z,14.734802
2023-10-09T18:26:36.504Z,14.654236
2023-10-09T18:30:01.855Z,14.694519
2023-10-09T18:33:27.201Z,14.654236
2023-10-09T18:36:52.520Z,14.644165
2023-10-09T18:40:17.848Z,14.624023
2023-10-09T18:43:43.538Z,14.573669
2023-10-09T18:47:08.420Z,14.503174
2023-10-09T18:50:33.692Z,14.462891
2023-10-09T18:53:58.973Z,14.462891
2023-10-09T18:57:24.321Z,14.503174
2023-10-09T19:00:51.788Z,14.543457
2023-10-09T19:04:14.893Z,14.543457
2023-10-09T19:07:40.166Z,14.543457
2023-10-09T19:11:05.508Z,14.543457
2023-10-09T19:14:30.768Z,14.523315
2023-10-09T19:17:56.112Z,14.472961
2023-10-09T19:21:21.372Z,14.503174
2023-10-09T19:24:46.678Z,14.45282
2023-10-09T19:28:11.953Z,14.45282
2023-10-09T19:31:37.300Z,14.392395
2023-10-09T19:35:02.625Z,14.33197
2023-10-09T19:38:27.902Z,14.291687
2023-10-09T19:41:53.228Z,14.291687
2023-10-09T19:45:18.540Z,14.251404
2023-10-09T19:48:43.894Z,14.251404
2023-10-09T19:52:09.169Z,14.211121
2023-10-09T19:55:34.502Z,14.20105
2023-10-09T19:58:59.816Z,14.150696
2023-10-09T20:02:25.157Z,14.140625
2023-10-09T20:05:50.540Z,14.120483
2023-10-09T20:09:15.925Z,14.120483
2023-10-09T20:12:41.042Z,14.060059
2023-10-09T20:16:06.333Z,14.019775
2023-10-09T20:19:31.723Z,13.969421
2023-10-09T20:22:57.092Z,13.94928
2023-10-09T20:26:22.397Z,13.878784
2023-10-09T20:29:47.854Z,13.919067
2023-10-09T20:33:13.041Z,13.94928
2023-10-09T20:36:38.332Z,13.969421
2023-10-09T20:40:03.690Z,13.959351
2023-10-09T20:43:28.957Z,13.959351
2023-10-09T20:46:54.262Z,14.019775
2023-10-09T20:50:19.679Z,13.989563
2023-10-09T20:53:44.803Z,13.989563
2023-10-09T20:57:09.983Z,14.029846
2023-10-09T21:00:35.156Z,13.989563
2023-10-09T21:04:00.395Z,13.999634
2023-10-09T21:07:25.597Z,13.989563
2023-10-09T21:10:50.871Z,13.94928
2023-10-09T21:14:16.072Z,13.959351
2023-10-09T21:17:41.266Z,13.94928
2023-10-09T21:21:06.430Z,13.94928
2023-10-09T21:24:31.655Z,13.919067
2023-10-09T21:27:56.865Z,13.908997
2023-10-09T21:31:22.203Z,13.908997
2023-10-09T21:34:47.383Z,13.888855
2023-10-09T21:38:12.525Z,13.94928
2023-10-09T21:41:37.696Z,13.888855
2023-10-09T21:45:02.911Z,13.959351
2023-10-09T21:48:28.160Z,13.999634
2023-10-09T21:51:53.332Z,14.090271
2023-10-09T21:55:18.533Z,14.140625
2023-10-09T21:58:43.744Z,14.150696
2023-10-09T22:02:08.945Z,14.140625
2023-10-09T22:05:34.206Z,14.150696
2023-10-09T22:08:59.418Z,14.180908
2023-10-09T22:12:24.608Z,14.150696
2023-10-09T22:15:49.884Z,14.150696
2023-10-09T22:19:15.353Z,14.170837
2023-10-09T22:22:40.569Z,14.150696
2023-10-09T22:26:05.777Z,14.150696
2023-10-09T22:29:30.987Z,14.150696
2023-10-09T22:32:56.202Z,14.150696
2023-10-09T22:36:22.204Z,14.140625
2023-10-09T22:39:46.646Z,14.070129
2023-10-09T22:43:11.832Z,14.070129
2023-10-09T22:46:37.026Z,14.060059
2023-10-09T22:50:02.317Z,14.100342
2023-10-09T22:53:27.597Z,14.150696
2023-10-09T22:56:52.708Z,14.170837
2023-10-09T23:00:17.900Z,14.150696
2023-10-09T23:03:43.138Z,14.170837
2023-10-09T23:07:08.312Z,14.180908
2023-10-09T23:10:33.494Z,14.180908
2023-10-09T23:13:58.753Z,14.180908
2023-10-09T23:17:23.969Z,14.211121
2023-10-09T23:20:49.124Z,14.180908
2023-10-09T23:24:14.324Z,14.211121
2023-10-09T23:27:39.571Z,14.241333
2023-10-09T23:31:04.770Z,14.221191
2023-10-09T23:34:29.943Z,14.221191
2023-10-09T23:37:55.151Z,14.221191
2023-10-09T23:41:20.373Z,14.211121
2023-10-09T23:44:45.548Z,14.221191
2023-10-09T23:48:10.834Z,14.241333
2023-10-09T23:51:35.947Z,14.271545
2023-10-09T23:55:01.153Z,14.321899
2023-10-09T23:58:26.364Z,14.291687
